createdAt,value
2018-12-15T00:04:11.050Z,15.50
2018-12-15T00:09:14.528Z,13.37
2018-12-15T00:14:18.404Z,14.60
2018-12-15T00:19:22.004Z,13.40
2018-12-15T00:24:25.817Z,12.33
2018-12-15T00:29:30.288Z,14.03
2018-12-15T00:34:33.793Z,14.07
2018-12-15T00:39:37.423Z,12.97
2018-12-15T00:44:51.216Z,14.80
2018-12-15T00:49:54.756Z,12.23
2018-12-15T00:54:58.747Z,15.37
2018-12-15T01:00:02.983Z,14.97
2018-12-15T01:05:10.379Z,13.07
2018-12-15T01:10:13.931Z,13.50
2018-12-15T01:15:22.269Z,11.87
2018-12-15T01:20:25.757Z,13.20
2018-12-15T01:25:29.395Z,12.63
2018-12-15T01:30:33.000Z,12.07
2018-12-15T01:35:37.489Z,12.83
2018-12-15T01:40:41.348Z,11.90
2018-12-15T01:45:45.275Z,10.93
2018-12-15T01:50:50.069Z,11.60
2018-12-15T01:55:53.981Z,12.60
2018-12-15T02:00:57.959Z,10.83
2018-12-15T02:06:02.058Z,13.03
2018-12-15T02:11:22.473Z,13.67
2018-12-15T02:16:26.364Z,13.83
2018-12-15T02:21:30.179Z,13.03
2018-12-15T02:26:34.400Z,13.00
2018-12-15T02:31:38.550Z,12.50
2018-12-15T02:36:42.122Z,13.57
2018-12-15T02:41:47.385Z,11.73
2018-12-15T02:46:51.221Z,15.27
2018-12-15T02:51:55.665Z,15.73
2018-12-15T02:56:59.292Z,12.97
2018-12-15T03:02:04.006Z,14.80
2018-12-15T03:07:07.660Z,15.70
2018-12-15T03:12:11.252Z,14.63
2018-12-15T03:17:15.155Z,12.50
2018-12-15T03:22:19.293Z,13.87
2018-12-15T03:27:22.999Z,12.50
2018-12-15T03:32:27.458Z,13.57
2018-12-15T03:37:32.007Z,12.63
2018-12-15T03:42:35.759Z,14.10
2018-12-15T03:47:40.955Z,12.63
2018-12-15T03:52:45.153Z,15.00
2018-12-15T03:57:48.920Z,14.27
2018-12-15T04:02:53.147Z,13.77
2018-12-15T04:07:58.023Z,13.70
2018-12-15T04:13:01.670Z,12.67
2018-12-15T04:18:06.234Z,11.90
2018-12-15T04:28:37.772Z,12.33
2018-12-15T04:33:41.860Z,13.70
2018-12-15T04:38:45.867Z,12.73
2018-12-15T04:43:50.039Z,12.13
2018-12-15T04:48:54.588Z,12.93
2018-12-15T04:53:58.473Z,12.33
2018-12-15T04:59:02.951Z,13.33
2018-12-15T05:04:07.387Z,12.77
2018-12-15T05:09:11.457Z,14.90
2018-12-15T05:14:15.720Z,15.70
2018-12-15T05:19:20.168Z,12.27
2018-12-15T05:24:24.342Z,13.57
2018-12-15T05:29:28.988Z,11.77
2018-12-15T05:34:32.835Z,13.60
2018-12-15T05:39:37.612Z,14.07
2018-12-15T05:44:41.590Z,11.67
2018-12-15T05:49:45.459Z,12.87
2018-12-15T05:54:49.460Z,12.73
2018-12-15T05:59:53.124Z,11.67
2018-12-15T06:04:57.204Z,12.77
2018-12-15T06:10:01.890Z,13.03
2018-12-15T06:15:06.240Z,13.60
2018-12-15T06:20:09.982Z,13.73
2018-12-15T06:25:14.560Z,11.17
2018-12-15T06:30:18.835Z,10.53
2018-12-15T06:35:22.510Z,13.53
2018-12-15T06:40:26.911Z,11.80
2018-12-15T06:45:31.490Z,13.93
2018-12-15T06:50:36.237Z,15.23
2018-12-15T06:55:40.716Z,13.47
2018-12-15T07:00:44.536Z,15.07
2018-12-15T07:05:49.059Z,13.10
2018-12-15T07:10:53.018Z,13.30
2018-12-15T07:15:57.651Z,13.60
2018-12-15T07:21:08.571Z,11.97
2018-12-15T07:26:12.171Z,13.87
2018-12-15T07:31:15.857Z,11.03
2018-12-15T07:36:20.419Z,11.87
2018-12-15T07:41:24.991Z,12.63
2018-12-15T07:46:29.018Z,13.23
2018-12-15T07:51:33.198Z,12.53
2018-12-15T07:56:38.490Z,12.07
2018-12-15T08:01:43.643Z,13.23
2018-12-15T08:06:47.499Z,12.43
2018-12-15T08:11:56.951Z,12.97
2018-12-15T08:17:04.171Z,14.27
2018-12-15T08:22:08.024Z,13.60
2018-12-15T08:27:12.858Z,11.03
2018-12-15T08:43:12.627Z,12.53
2018-12-15T08:48:26.472Z,12.10
2018-12-15T08:53:30.359Z,12.90
2018-12-15T09:09:31.373Z,14.13
2018-12-15T09:31:05.162Z,12.93
2018-12-15T09:36:09.337Z,13.90
2018-12-15T09:41:13.506Z,15.07
2018-12-15T09:46:17.462Z,15.70
2018-12-15T09:51:35.392Z,15.43
2018-12-15T09:56:39.234Z,15.67
2018-12-15T10:01:43.546Z,17.63
2018-12-15T10:06:47.190Z,14.67
2018-12-15T10:11:51.939Z,14.27
2018-12-15T10:16:55.730Z,15.83
2018-12-15T10:22:06.541Z,15.07
2018-12-15T10:27:11.319Z,15.80
2018-12-15T10:32:20.738Z,14.73
2018-12-15T10:37:25.463Z,15.73
2018-12-15T10:42:29.020Z,16.03
2018-12-15T10:47:32.557Z,16.13
2018-12-15T10:52:36.767Z,15.93
2018-12-15T10:57:40.503Z,14.57
2018-12-15T11:02:44.680Z,15.03
2018-12-15T11:07:48.528Z,15.73
2018-12-15T11:12:52.131Z,16.20
2018-12-15T11:17:56.145Z,16.13
2018-12-15T11:23:00.585Z,18.53
2018-12-15T11:28:04.752Z,16.67
2018-12-15T11:33:09.122Z,20.13
2018-12-15T11:48:42.685Z,19.07
2018-12-15T11:53:46.686Z,16.90
2018-12-15T11:58:50.219Z,18.10
2018-12-15T12:04:05.767Z,17.17
2018-12-15T12:09:09.383Z,15.80
2018-12-15T12:14:13.247Z,18.27
2018-12-15T12:19:17.062Z,17.53
2018-12-15T12:24:20.860Z,16.83
2018-12-15T12:29:24.408Z,17.50
2018-12-15T12:34:28.468Z,16.70
2018-12-15T12:39:32.141Z,16.43
2018-12-15T12:44:35.758Z,16.60
2018-12-15T12:49:40.113Z,15.57
2018-12-15T12:54:44.431Z,14.93
2018-12-15T12:59:48.832Z,15.57
2018-12-15T13:04:53.536Z,16.47
2018-12-15T13:09:57.416Z,15.23
2018-12-15T13:15:01.765Z,14.67
2018-12-15T13:20:06.263Z,16.33
2018-12-15T13:25:10.244Z,18.93
2018-12-15T13:30:20.120Z,19.33
2018-12-15T13:40:58.141Z,15.33
2018-12-15T13:46:01.698Z,18.63
2018-12-15T13:51:05.379Z,17.47
2018-12-15T13:56:09.376Z,17.27
2018-12-15T14:01:13.282Z,21.47
2018-12-15T14:06:17.418Z,17.20
2018-12-15T14:11:21.839Z,17.13
2018-12-15T14:16:26.462Z,18.37
2018-12-15T14:21:31.486Z,17.17
2018-12-15T14:26:35.407Z,16.67
2018-12-15T14:37:08.139Z,20.17
2018-12-15T14:42:13.745Z,17.23
2018-12-15T14:52:19.542Z,20.80
2018-12-15T14:57:26.104Z,19.20
2018-12-15T15:02:29.659Z,17.90
2018-12-15T15:07:33.215Z,22.73
2018-12-15T15:12:37.448Z,18.30
2018-12-15T15:17:41.269Z,18.50
2018-12-15T15:22:45.115Z,20.00
2018-12-15T15:27:48.723Z,18.13
2018-12-15T15:32:53.327Z,18.53
2018-12-15T15:37:57.681Z,18.17
2018-12-15T15:43:01.809Z,17.57
2018-12-15T15:48:05.511Z,17.87
2018-12-15T15:53:10.164Z,16.70
2018-12-15T15:58:13.996Z,16.37
2018-12-15T16:03:17.579Z,16.33
2018-12-15T16:08:21.830Z,15.07
2018-12-15T16:13:25.681Z,13.30
2018-12-15T16:18:30.292Z,14.60
2018-12-15T16:23:34.512Z,12.90
2018-12-15T16:28:38.192Z,13.80
2018-12-15T16:33:43.373Z,13.70
2018-12-15T16:38:47.711Z,13.27
2018-12-15T16:43:55.348Z,12.90
2018-12-15T16:48:59.322Z,11.30
2018-12-15T16:54:03.311Z,13.23
2018-12-15T16:59:08.016Z,12.50
2018-12-15T17:04:11.636Z,12.53
2018-12-15T17:09:16.390Z,11.97
2018-12-15T17:14:20.029Z,12.80
2018-12-15T17:19:23.953Z,14.00
2018-12-15T17:24:27.564Z,15.43
2018-12-15T17:29:35.337Z,12.40
2018-12-15T17:34:39.301Z,14.17
2018-12-15T17:39:42.920Z,14.77
2018-12-15T17:44:47.826Z,13.43
2018-12-15T17:49:51.733Z,16.50
2018-12-15T17:54:55.448Z,14.03
2018-12-15T17:59:59.401Z,16.60
2018-12-15T18:05:03.312Z,13.30
2018-12-15T18:10:08.608Z,14.03
2018-12-15T18:15:12.376Z,14.30
2018-12-15T18:20:16.860Z,14.77
2018-12-15T18:25:21.144Z,15.10
2018-12-15T18:30:25.049Z,13.40
2018-12-15T18:35:32.166Z,13.17
2018-12-15T18:40:36.639Z,15.70
2018-12-15T18:45:40.926Z,14.83
2018-12-15T18:50:45.336Z,17.33
2018-12-15T18:55:51.515Z,16.83
2018-12-15T19:00:55.979Z,15.47
2018-12-15T19:05:59.519Z,16.77
2018-12-15T19:11:04.311Z,18.13
2018-12-15T19:16:09.421Z,18.63
2018-12-15T19:21:13.077Z,17.67
2018-12-15T19:26:16.989Z,18.70
2018-12-15T19:31:21.484Z,18.83
2018-12-15T19:36:25.055Z,17.93
2018-12-15T19:41:29.368Z,17.67
2018-12-15T19:46:33.214Z,19.43
2018-12-15T19:51:36.992Z,17.80
2018-12-15T19:56:41.539Z,18.47
2018-12-15T20:01:46.800Z,18.33
2018-12-15T20:06:51.450Z,19.60
2018-12-15T20:11:55.027Z,18.87
2018-12-15T20:28:04.472Z,19.03
2018-12-15T20:33:09.161Z,19.33
2018-12-15T20:38:13.470Z,18.00
2018-12-15T20:43:17.723Z,19.20
2018-12-15T20:48:22.170Z,19.23
2018-12-15T20:53:26.220Z,17.97
2018-12-15T20:58:30.605Z,18.97
2018-12-15T21:03:34.529Z,18.30
2018-12-15T21:08:38.739Z,18.37
2018-12-15T21:19:11.860Z,15.10
2018-12-15T21:24:15.972Z,16.87
2018-12-15T21:29:20.435Z,16.40
2018-12-15T21:34:24.700Z,16.43
2018-12-15T21:39:28.574Z,15.60
2018-12-15T21:44:33.561Z,17.40
2018-12-15T21:49:37.796Z,17.83
2018-12-15T21:54:42.634Z,17.67
2018-12-15T22:00:06.288Z,15.87
2018-12-15T22:05:16.700Z,17.47
2018-12-15T22:10:21.175Z,16.77
2018-12-15T22:15:24.813Z,16.00
2018-12-15T22:20:29.468Z,15.80
2018-12-15T22:25:37.105Z,15.13
2018-12-15T22:30:41.838Z,15.90
2018-12-15T22:35:49.510Z,17.40
2018-12-15T22:40:53.779Z,15.43
2018-12-15T22:45:58.256Z,15.77
2018-12-15T22:51:02.466Z,14.90
2018-12-15T22:56:06.132Z,17.93
2018-12-15T23:01:12.243Z,14.17
2018-12-15T23:06:15.867Z,16.80
2018-12-15T23:11:19.425Z,16.53
2018-12-15T23:16:27.946Z,15.20
2018-12-15T23:21:32.466Z,13.93
2018-12-15T23:26:36.952Z,15.20
2018-12-15T23:31:40.728Z,12.90
2018-12-15T23:36:44.423Z,13.67
2018-12-15T23:41:48.345Z,15.73
2018-12-15T23:46:52.331Z,15.10
2018-12-15T23:51:56.176Z,15.20
2018-12-15T23:57:00.524Z,13.63
